Time,TemperatureF,DewpointF,PressureIn,WindDirection,WindDirectionDegrees,WindSpeedMPH,WindSpeedGustMPH,Humidity,HourlyPrecipIn,Conditions,Clouds,dailyrainin,SoftwareType,DateUTC
2013-01-04 00:03:00,31.4,29.1,30.38,NW,321,0.0,1.0,91,0.00,,---,0.00,VWS V13.00,2013-01-04 06:03:00,
2013-01-04 00:08:00,31.8,29.2,30.38,NW,321,0.0,0.0,90,0.00,,---,0.00,VWS V13.00,2013-01-04 06:08:00,
2013-01-04 00:13:00,32.1,29.2,30.38,NW,321,0.0,0.0,89,0.00,,---,0.00,VWS V13.00,2013-01-04 06:13:00,
2013-01-04 00:18:00,32.1,29.2,30.38,NW,321,0.0,0.0,89,0.00,,---,0.00,VWS V13.00,2013-01-04 06:18:00,
2013-01-04 00:23:00,32.0,29.1,30.38,NW,321,0.0,0.0,89,0.00,,---,0.00,VWS V13.00,2013-01-04 06:23:00,
2013-01-04 00:28:00,31.8,28.9,30.38,NW,321,0.0,0.0,89,0.00,,---,0.00,VWS V13.00,2013-01-04 06:28:00,
2013-01-04 00:33:00,31.5,28.6,30.37,NW,321,0.0,0.0,89,0.00,,---,0.00,VWS V13.00,2013-01-04 06:33:00,
2013-01-04 00:38:00,31.1,28.5,30.37,NW,321,0.0,0.0,90,0.00,,---,0.00,VWS V13.00,2013-01-04 06:38:00,
2013-01-04 00:43:00,30.8,28.2,30.37,NW,321,0.0,0.0,90,0.00,,---,0.00,VWS V13.00,2013-01-04 06:43:00,
2013-01-04 00:48:00,30.6,28.0,30.37,NW,321,0.0,0.0,90,0.00,,---,0.00,VWS V13.00,2013-01-04 06:48:00,
2013-01-04 00:53:00,30.5,28.2,30.37,NW,321,0.0,0.0,91,0.00,,---,0.00,VWS V13.00,2013-01-04 06:53:00,
2013-01-04 00:58:00,30.3,28.0,30.37,NW,321,0.0,0.0,91,0.00,,---,0.00,VWS V13.00,2013-01-04 06:58:00,
2013-01-04 01:03:00,30.1,27.8,30.37,NW,321,0.0,0.0,91,0.00,,---,0.00,VWS V13.00,2013-01-04 07:03:00,
2013-01-04 01:08:00,29.9,27.6,30.37,NW,321,0.0,0.0,91,0.00,,---,0.00,VWS V13.00,2013-01-04 07:08:00,
2013-01-04 01:13:00,29.8,27.8,30.38,NW,321,0.0,0.0,92,0.00,,---,0.00,VWS V13.00,2013-01-04 07:13:00,
2013-01-04 01:18:00,29.8,27.5,30.38,NW,321,0.0,0.0,91,0.00,,---,0.00,VWS V13.00,2013-01-04 07:18:00,
2013-01-04 01:23:00,29.8,27.5,30.38,NW,321,0.0,0.0,91,0.00,,---,0.00,VWS V13.00,2013-01-04 07:23:00,
2013-01-04 01:28:00,29.7,27.4,30.38,NW,321,0.0,0.0,91,0.00,,---,0.00,VWS V13.00,2013-01-04 07:28:00,
2013-01-04 01:33:00,29.7,27.4,30.38,NW,321,0.0,0.0,91,0.00,,---,0.00,VWS V13.00,2013-01-04 07:33:00,
2013-01-04 01:38:00,29.7,27.7,30.38,NW,321,0.0,0.0,92,0.00,,---,0.00,VWS V13.00,2013-01-04 07:38:00,
2013-01-04 01:43:00,29.6,27.6,30.38,NW,321,0.0,0.0,92,0.00,,---,0.00,VWS V13.00,2013-01-04 07:43:00,
2013-01-04 01:48:00,29.5,27.5,30.38,NW,321,0.0,0.0,92,0.00,,---,0.00,VWS V13.00,2013-01-04 07:48:00,
2013-01-04 01:53:00,29.4,27.1,30.39,NW,321,0.0,0.0,91,0.00,,---,0.00,VWS V13.00,2013-01-04 07:53:00,
2013-01-04 01:58:00,29.3,27.3,30.39,NW,321,0.0,0.0,92,0.00,,---,0.00,VWS V13.00,2013-01-04 07:58:00,
2013-01-04 02:03:00,29.3,27.3,30.39,NW,321,0.0,0.0,92,0.00,,---,0.00,VWS V13.00,2013-01-04 08:03:00,
2013-01-04 02:08:00,29.2,27.2,30.39,NW,321,0.0,0.0,92,0.00,,---,0.00,VWS V13.00,2013-01-04 08:08:00,
2013-01-04 02:13:00,29.1,27.1,30.39,NW,321,0.0,0.0,92,0.00,,---,0.00,VWS V13.00,2013-01-04 08:13:00,
2013-01-04 02:18:00,28.8,26.8,30.39,NW,321,0.0,0.0,92,0.00,,---,0.00,VWS V13.00,2013-01-04 08:18:00,
2013-01-04 02:23:00,28.7,26.7,30.38,NW,321,0.0,0.0,92,0.00,,---,0.00,VWS V13.00,2013-01-04 08:23:00,
2013-01-04 02:28:00,28.5,26.7,30.38,NW,321,0.0,0.0,93,0.00,,---,0.00,VWS V13.00,2013-01-04 08:28:00,
2013-01-04 02:33:00,28.4,26.6,30.38,NW,321,0.0,0.0,93,0.00,,---,0.00,VWS V13.00,2013-01-04 08:33:00,
2013-01-04 02:38:00,28.3,26.5,30.38,NW,321,0.0,0.0,93,0.00,,---,0.00,VWS V13.00,2013-01-04 08:38:00,
2013-01-04 02:43:00,28.1,26.3,30.38,NW,321,0.0,0.0,93,0.00,,---,0.00,VWS V13.00,2013-01-04 08:43:00,
2013-01-04 02:48:00,28.1,26.3,30.38,NW,321,0.0,0.0,93,0.00,,---,0.00,VWS V13.00,2013-01-04 08:48:00,
2013-01-04 02:53:00,28.0,26.5,30.38,NW,321,0.0,0.0,94,0.00,,---,0.00,VWS V13.00,2013-01-04 08:53:00,
2013-01-04 02:58:00,27.9,26.4,30.38,NW,321,0.0,0.0,94,0.00,,---,0.00,VWS V13.00,2013-01-04 08:58:00,
2013-01-04 03:03:00,27.8,26.3,30.38,NW,321,0.0,0.0,94,0.00,,---,0.00,VWS V13.00,2013-01-04 09:03:00,
2013-01-04 03:08:00,27.8,26.3,30.37,NW,321,0.0,0.0,94,0.00,,---,0.00,VWS V13.00,2013-01-04 09:08:00,
2013-01-04 03:13:00,27.8,26.3,30.38,NW,321,0.0,0.0,94,0.00,,---,0.00,VWS V13.00,2013-01-04 09:13:00,
2013-01-04 03:18:00,27.8,26.3,30.38,NW,321,0.0,0.0,94,0.00,,---,0.00,VWS V13.00,2013-01-04 09:18:00,
2013-01-04 03:23:00,27.9,26.4,30.38,NW,321,0.0,0.0,94,0.00,,---,0.00,VWS V13.00,2013-01-04 09:23:00,
2013-01-04 03:28:00,27.8,26.3,30.38,NW,321,0.0,0.0,94,0.00,,---,0.00,VWS V13.00,2013-01-04 09:28:00,
2013-01-04 03:33:00,27.7,26.2,30.37,NW,321,0.0,0.0,94,0.00,,---,0.00,VWS V13.00,2013-01-04 09:33:00,
2013-01-04 03:38:00,27.7,26.5,30.37,NW,321,0.0,0.0,95,0.00,,---,0.00,VWS V13.00,2013-01-04 09:38:00,
2013-01-04 03:43:00,27.7,26.2,30.37,NW,321,0.0,0.0,94,0.00,,---,0.00,VWS V13.00,2013-01-04 09:43:00,
2013-01-04 03:48:00,27.7,26.5,30.37,NW,321,0.0,0.0,95,0.00,,---,0.00,VWS V13.00,2013-01-04 09:48:00,
2013-01-04 03:53:00,27.8,26.6,30.37,NW,321,0.0,0.0,95,0.00,,---,0.00,VWS V13.00,2013-01-04 09:53:00,
2013-01-04 03:58:00,27.8,26.6,30.38,NW,321,0.0,0.0,95,0.00,,---,0.00,VWS V13.00,2013-01-04 09:58:00,
2013-01-04 04:03:00,27.9,26.7,30.38,NW,321,0.0,0.0,95,0.00,,---,0.00,VWS V13.00,2013-01-04 10:03:00,
2013-01-04 04:08:00,28.1,26.9,30.38,NW,321,0.0,0.0,95,0.00,,---,0.00,VWS V13.00,2013-01-04 10:08:00,
2013-01-04 04:13:00,28.1,26.9,30.38,NW,321,0.0,0.0,95,0.00,,---,0.00,VWS V13.00,2013-01-04 10:13:00,
2013-01-04 04:18:00,28.1,26.9,30.38,NW,321,0.0,0.0,95,0.00,,---,0.00,VWS V13.00,2013-01-04 10:18:00,
2013-01-04 04:23:00,28.0,26.8,30.38,NW,321,0.0,0.0,95,0.00,,---,0.00,VWS V13.00,2013-01-04 10:23:00,
2013-01-04 04:28:00,27.9,26.4,30.38,NW,321,0.0,0.0,94,0.00,,---,0.00,VWS V13.00,2013-01-04 10:28:00,
2013-01-04 04:33:00,27.9,26.4,30.38,NW,321,0.0,0.0,94,0.00,,---,0.00,VWS V13.00,2013-01-04 10:33:00,
2013-01-04 04:38:00,27.8,26.6,30.38,NW,321,0.0,0.0,95,0.00,,---,0.00,VWS V13.00,2013-01-04 10:38:00,
2013-01-04 04:43:00,27.7,26.2,30.38,NW,321,0.0,0.0,94,0.00,,---,0.00,VWS V13.00,2013-01-04 10:43:00,
2013-01-04 04:48:00,27.6,26.1,30.38,NW,321,0.0,0.0,94,0.00,,---,0.00,VWS V13.00,2013-01-04 10:48:00,
2013-01-04 04:53:00,27.4,26.2,30.38,NW,321,0.0,0.0,95,0.00,,---,0.00,VWS V13.00,2013-01-04 10:53:00,
2013-01-04 04:58:00,27.4,26.2,30.38,NW,321,0.0,0.0,95,0.00,,---,0.00,VWS V13.00,2013-01-04 10:58:00,
2013-01-04 05:03:00,27.4,26.2,30.38,NW,321,0.0,0.0,95,0.00,,---,0.00,VWS V13.00,2013-01-04 11:03:00,
2013-01-04 05:08:00,27.4,26.2,30.39,NW,321,0.0,0.0,95,0.00,,---,0.00,VWS V13.00,2013-01-04 11:08:00,
2013-01-04 05:13:00,27.4,26.2,30.39,NW,321,0.0,0.0,95,0.00,,---,0.00,VWS V13.00,2013-01-04 11:13:00,
2013-01-04 05:18:00,27.3,26.1,30.39,NW,321,0.0,0.0,95,0.00,,---,0.00,VWS V13.00,2013-01-04 11:18:00,
2013-01-04 05:23:00,27.2,26.0,30.39,NW,321,0.0,0.0,95,0.00,,---,0.00,VWS V13.00,2013-01-04 11:23:00,
2013-01-04 05:28:00,27.2,26.0,30.39,NW,321,0.0,0.0,95,0.00,,---,0.00,VWS V13.00,2013-01-04 11:28:00,
2013-01-04 05:33:00,27.1,25.9,30.40,NW,321,0.0,0.0,95,0.00,,---,0.00,VWS V13.00,2013-01-04 11:33:00,
2013-01-04 05:38:00,27.1,25.9,30.40,NW,321,0.0,0.0,95,0.00,,---,0.00,VWS V13.00,2013-01-04 11:38:00,
2013-01-04 05:43:00,27.0,25.8,30.40,NW,321,0.0,0.0,95,0.00,,---,0.00,VWS V13.00,2013-01-04 11:43:00,
2013-01-04 05:48:00,27.1,25.9,30.41,NW,321,0.0,0.0,95,0.00,,---,0.00,VWS V13.00,2013-01-04 11:48:00,
2013-01-04 05:53:00,27.2,26.0,30.41,NW,321,0.0,0.0,95,0.00,,---,0.00,VWS V13.00,2013-01-04 11:53:00,
2013-01-04 05:58:00,27.3,26.1,30.41,NW,321,0.0,0.0,95,0.00,,---,0.00,VWS V13.00,2013-01-04 11:58:00,
2013-01-04 06:03:00,27.4,26.4,30.41,NW,321,0.0,0.0,96,0.00,,---,0.00,VWS V13.00,2013-01-04 12:03:00,
2013-01-04 06:08:00,27.4,26.2,30.41,NW,321,0.0,0.0,95,0.00,,---,0.00,VWS V13.00,2013-01-04 12:08:00,
2013-01-04 06:13:00,27.2,26.0,30.42,NW,321,0.0,0.0,95,0.00,,---,0.00,VWS V13.00,2013-01-04 12:13:00,
2013-01-04 06:18:00,27.1,25.9,30.42,NW,321,0.0,0.0,95,0.00,,---,0.00,VWS V13.00,2013-01-04 12:18:00,
2013-01-04 06:23:00,27.2,26.0,30.42,NW,321,0.0,0.0,95,0.00,,---,0.00,VWS V13.00,2013-01-04 12:23:00,
2013-01-04 06:28:00,27.3,26.1,30.42,NW,321,0.0,0.0,95,0.00,,---,0.00,VWS V13.00,2013-01-04 12:28:00,
2013-01-04 06:33:00,27.2,26.0,30.42,NW,321,0.0,0.0,95,0.00,,---,0.00,VWS V13.00,2013-01-04 12:33:00,
2013-01-04 06:38:00,27.1,25.9,30.42,NW,321,0.0,0.0,95,0.00,,---,0.00,VWS V13.00,2013-01-04 12:38:00,
2013-01-04 06:43:00,27.1,25.9,30.42,NW,321,0.0,0.0,95,0.00,,---,0.00,VWS V13.00,2013-01-04 12:43:00,
2013-01-04 06:48:00,27.0,25.8,30.42,NW,321,0.0,0.0,95,0.00,,---,0.00,VWS V13.00,2013-01-04 12:48:00,
2013-01-04 06:53:00,27.0,25.8,30.43,NW,321,0.0,0.0,95,0.00,,---,0.00,VWS V13.00,2013-01-04 12:53:00,
2013-01-04 06:58:00,27.0,25.8,30.42,NW,321,0.0,0.0,95,0.00,,---,0.00,VWS V13.00,2013-01-04 12:58:00,
2013-01-04 07:03:00,27.0,25.8,30.42,NW,321,0.0,0.0,95,0.00,,---,0.00,VWS V13.00,2013-01-04 13:03:00,
2013-01-04 07:08:00,27.0,26.0,30.42,NW,321,0.0,0.0,96,0.00,,---,0.00,VWS V13.00,2013-01-04 13:08:00,
2013-01-04 07:13:00,27.1,26.1,30.43,NW,321,0.0,0.0,96,0.00,,---,0.00,VWS V13.00,2013-01-04 13:13:00,
2013-01-04 07:18:00,27.1,26.1,30.42,NW,321,0.0,0.0,96,0.00,,---,0.00,VWS V13.00,2013-01-04 13:18:00,
2013-01-04 07:23:00,27.2,26.2,30.43,NW,321,0.0,0.0,96,0.00,,---,0.00,VWS V13.00,2013-01-04 13:23:00,
2013-01-04 07:28:00,27.2,26.2,30.43,NW,321,0.0,0.0,96,0.00,,---,0.00,VWS V13.00,2013-01-04 13:28:00,
2013-01-04 07:33:00,27.4,26.4,30.43,NW,321,0.0,0.0,96,0.00,,---,0.00,VWS V13.00,2013-01-04 13:33:00,
2013-01-04 07:38:00,27.6,26.6,30.43,NW,321,0.0,0.0,96,0.00,,---,0.00,VWS V13.00,2013-01-04 13:38:00,
2013-01-04 07:43:00,27.7,26.7,30.43,NW,321,0.0,0.0,96,0.00,,---,0.00,VWS V13.00,2013-01-04 13:43:00,
2013-01-04 07:48:00,28.0,27.0,30.43,NW,321,0.0,0.0,96,0.00,,---,0.00,VWS V13.00,2013-01-04 13:48:00,
2013-01-04 07:53:00,28.6,27.9,30.43,NW,321,0.0,0.0,97,0.00,,---,0.00,VWS V13.00,2013-01-04 13:53:00,
2013-01-04 07:58:00,29.0,28.3,30.43,NW,321,0.0,0.0,97,0.00,,---,0.00,VWS V13.00,2013-01-04 13:58:00,
2013-01-04 08:03:00,29.3,28.3,30.44,NW,321,0.0,0.0,96,0.00,,---,0.00,VWS V13.00,2013-01-04 14:03:00,
2013-01-04 08:08:00,29.6,28.6,30.44,NW,321,0.0,0.0,96,0.00,,---,0.00,VWS V13.00,2013-01-04 14:08:00,
2013-01-04 08:13:00,30.1,29.1,30.44,NW,321,0.0,0.0,96,0.00,,---,0.00,VWS V13.00,2013-01-04 14:13:00,
2013-01-04 08:18:00,30.5,29.2,30.44,NW,321,0.0,0.0,95,0.00,,---,0.00,VWS V13.00,2013-01-04 14:18:00,
2013-01-04 08:23:00,30.8,29.5,30.44,NW,321,0.0,0.0,95,0.00,,---,0.00,VWS V13.00,2013-01-04 14:23:00,
2013-01-04 08:28:00,31.3,29.8,30.44,NW,321,0.0,0.0,94,0.00,,---,0.00,VWS V13.00,2013-01-04 14:28:00,
2013-01-04 08:33:00,31.9,30.4,30.45,NW,321,0.0,1.0,94,0.00,,---,0.00,VWS V13.00,2013-01-04 14:33:00,
2013-01-04 08:38:00,32.8,30.7,30.45,NW,321,1.0,3.0,92,0.00,,---,0.00,VWS V13.00,2013-01-04 14:38:00,
2013-01-04 08:43:00,33.5,30.9,30.45,NNW,345,1.0,3.0,90,0.00,,---,0.00,VWS V13.00,2013-01-04 14:43:00,
2013-01-04 08:48:00,34.3,30.6,30.45,NNW,334,2.0,6.0,86,0.00,,---,0.00,VWS V13.00,2013-01-04 14:48:00,
2013-01-04 08:53:00,34.7,30.7,30.45,NNW,348,0.0,3.0,85,0.00,,---,0.00,VWS V13.00,2013-01-04 14:53:00,
2013-01-04 08:58:00,35.3,30.7,30.44,NNW,327,3.0,3.0,83,0.00,,---,0.00,VWS V13.00,2013-01-04 14:58:00,
2013-01-04 09:03:00,36.0,30.8,30.44,NNW,328,0.0,3.0,81,0.00,,---,0.00,VWS V13.00,2013-01-04 15:03:00,
2013-01-04 09:08:00,36.6,30.7,30.44,NNW,337,2.0,3.0,79,0.00,,---,0.00,VWS V13.00,2013-01-04 15:08:00,
2013-01-04 09:13:00,37.4,31.2,30.44,NNW,337,0.0,3.0,78,0.00,,---,0.00,VWS V13.00,2013-01-04 15:13:00,
2013-01-04 09:18:00,38.0,30.8,30.44,NW,319,2.0,5.0,75,0.00,,---,0.00,VWS V13.00,2013-01-04 15:18:00,
2013-01-04 09:23:00,38.5,31.0,30.45,NE,36,0.0,3.0,74,0.00,,---,0.00,VWS V13.00,2013-01-04 15:23:00,
2013-01-04 09:28:00,38.9,30.7,30.45,NE,46,3.0,4.0,72,0.00,,---,0.00,VWS V13.00,2013-01-04 15:28:00,
2013-01-04 09:33:00,39.3,30.7,30.45,North,349,4.0,9.0,71,0.00,,---,0.00,VWS V13.00,2013-01-04 15:33:00,
2013-01-04 09:38:00,39.6,31.0,30.45,NNW,346,0.0,2.0,71,0.00,,---,0.00,VWS V13.00,2013-01-04 15:38:00,
2013-01-04 09:43:00,40.2,30.9,30.46,North,360,4.0,5.0,69,0.00,,---,0.00,VWS V13.00,2013-01-04 15:43:00,
2013-01-04 09:48:00,40.4,31.0,30.46,NNE,26,3.0,5.0,69,0.00,,---,0.00,VWS V13.00,2013-01-04 15:48:00,
2013-01-04 09:53:00,40.5,30.8,30.46,North,9,2.0,4.0,68,0.00,,---,0.00,VWS V13.00,2013-01-04 15:53:00,
2013-01-04 09:58:00,40.6,30.5,30.46,NW,326,3.0,6.0,67,0.00,,---,0.00,VWS V13.00,2013-01-04 15:58:00,
2013-01-04 10:03:00,40.9,30.8,30.46,North,355,1.0,6.0,67,0.00,,---,0.00,VWS V13.00,2013-01-04 16:03:00,
2013-01-04 10:08:00,41.3,30.8,30.46,North,355,0.0,2.0,66,0.00,,---,0.00,VWS V13.00,2013-01-04 16:08:00,
2013-01-04 10:13:00,42.0,31.5,30.45,North,355,2.0,2.0,66,0.00,,---,0.00,VWS V13.00,2013-01-04 16:13:00,
2013-01-04 10:18:00,42.5,31.2,30.45,NNE,25,2.0,3.0,64,0.00,,---,0.00,VWS V13.00,2013-01-04 16:18:00,
2013-01-04 10:23:00,42.7,30.2,30.45,NE,44,0.0,4.0,61,0.00,,---,0.00,VWS V13.00,2013-01-04 16:23:00,
2013-01-04 10:28:00,42.8,30.3,30.45,NNW,342,0.0,4.0,61,0.00,,---,0.00,VWS V13.00,2013-01-04 16:28:00,
2013-01-04 10:33:00,43.1,30.6,30.45,NNE,28,0.0,4.0,61,0.00,,---,0.00,VWS V13.00,2013-01-04 16:33:00,
2013-01-04 10:38:00,43.7,30.7,30.44,NNE,14,0.0,4.0,60,0.00,,---,0.00,VWS V13.00,2013-01-04 16:38:00,
2013-01-04 10:43:00,44.0,30.6,30.44,NNW,342,0.0,4.0,59,0.00,,---,0.00,VWS V13.00,2013-01-04 16:43:00,
2013-01-04 10:48:00,44.5,31.1,30.44,NE,56,0.0,4.0,59,0.00,,---,0.00,VWS V13.00,2013-01-04 16:48:00,
2013-01-04 10:53:00,45.1,31.2,30.44,ENE,67,0.0,3.0,58,0.00,,---,0.00,VWS V13.00,2013-01-04 16:53:00,
2013-01-04 10:58:00,45.1,29.5,30.43,North,349,3.0,7.0,54,0.00,,---,0.00,VWS V13.00,2013-01-04 16:58:00,
2013-01-04 11:03:00,45.0,29.4,30.43,NNE,15,0.0,9.0,54,0.00,,---,0.00,VWS V13.00,2013-01-04 17:03:00,
2013-01-04 11:08:00,45.0,29.4,30.43,NNW,336,1.0,4.0,54,0.00,,---,0.00,VWS V13.00,2013-01-04 17:08:00,
2013-01-04 11:13:00,45.1,29.5,30.43,NE,46,0.0,4.0,54,0.00,,---,0.00,VWS V13.00,2013-01-04 17:13:00,
2013-01-04 11:18:00,45.3,29.6,30.43,NNE,14,1.0,4.0,54,0.00,,---,0.00,VWS V13.00,2013-01-04 17:18:00,
2013-01-04 11:23:00,45.6,29.9,30.43,North,350,3.0,3.0,54,0.00,,---,0.00,VWS V13.00,2013-01-04 17:23:00,
2013-01-04 11:28:00,46.2,29.6,30.42,West,266,1.0,5.0,52,0.00,,---,0.00,VWS V13.00,2013-01-04 17:28:00,
2013-01-04 11:33:00,46.3,28.7,30.42,NW,304,2.0,5.0,50,0.00,,---,0.00,VWS V13.00,2013-01-04 17:33:00,
2013-01-04 11:38:00,46.3,28.7,30.42,NNW,329,3.0,5.0,50,0.00,,---,0.00,VWS V13.00,2013-01-04 17:38:00,
2013-01-04 11:43:00,46.8,29.6,30.42,NNE,16,1.0,5.0,51,0.00,,---,0.00,VWS V13.00,2013-01-04 17:43:00,
2013-01-04 11:48:00,46.7,29.5,30.42,North,360,1.0,7.0,51,0.00,,---,0.00,VWS V13.00,2013-01-04 17:48:00,
2013-01-04 11:53:00,46.7,29.5,30.41,NNE,12,0.0,3.0,51,0.00,,---,0.00,VWS V13.00,2013-01-04 17:53:00,
2013-01-04 11:58:00,47.0,30.8,30.41,NNE,32,2.0,4.0,53,0.00,,---,0.00,VWS V13.00,2013-01-04 17:58:00,
2013-01-04 12:03:00,47.1,29.4,30.41,NNE,29,2.0,6.0,50,0.00,,---,0.00,VWS V13.00,2013-01-04 18:03:00,
2013-01-04 12:08:00,47.4,29.2,30.41,WSW,257,4.0,5.0,49,0.00,,---,0.00,VWS V13.00,2013-01-04 18:08:00,
2013-01-04 12:13:00,47.7,29.5,30.41,North,360,5.0,7.0,49,0.00,,---,0.00,VWS V13.00,2013-01-04 18:13:00,
2013-01-04 12:18:00,47.5,28.8,30.40,ESE,110,0.0,7.0,48,0.00,,---,0.00,VWS V13.00,2013-01-04 18:18:00,
2013-01-04 12:23:00,47.8,29.6,30.40,NNW,328,1.0,6.0,49,0.00,,---,0.00,VWS V13.00,2013-01-04 18:23:00,
2013-01-04 12:28:00,47.8,29.1,30.39,NNW,340,2.0,6.0,48,0.00,,---,0.00,VWS V13.00,2013-01-04 18:28:00,
2013-01-04 12:33:00,48.0,29.8,30.39,NNE,14,2.0,6.0,49,0.00,,---,0.00,VWS V13.00,2013-01-04 18:33:00,
2013-01-04 12:38:00,48.2,29.5,30.39,NW,320,3.0,6.0,48,0.00,,---,0.00,VWS V13.00,2013-01-04 18:38:00,
2013-01-04 12:43:00,48.4,29.1,30.38,NW,317,2.0,6.0,47,0.00,,---,0.00,VWS V13.00,2013-01-04 18:43:00,
2013-01-04 12:48:00,48.4,29.1,30.38,WNW,291,3.0,6.0,47,0.00,,---,0.00,VWS V13.00,2013-01-04 18:48:00,
2013-01-04 12:53:00,48.1,28.8,30.38,NNW,333,0.0,4.0,47,0.00,,---,0.00,VWS V13.00,2013-01-04 18:53:00,
2013-01-04 12:58:00,48.4,30.1,30.37,North,350,2.0,4.0,49,0.00,,---,0.00,VWS V13.00,2013-01-04 18:58:00,
2013-01-04 13:03:00,48.2,29.5,30.37,ESE,108,0.0,4.0,48,0.00,,---,0.00,VWS V13.00,2013-01-04 19:03:00,
2013-01-04 13:08:00,48.3,29.5,30.37,NW,313,0.0,8.0,48,0.00,,---,0.00,VWS V13.00,2013-01-04 19:08:00,
2013-01-04 13:13:00,48.8,29.5,30.37,West,276,3.0,8.0,47,0.00,,---,0.00,VWS V13.00,2013-01-04 19:13:00,
2013-01-04 13:18:00,48.9,29.0,30.37,West,271,8.0,9.0,46,0.00,,---,0.00,VWS V13.00,2013-01-04 19:18:00,
2013-01-04 13:23:00,48.7,29.4,30.37,NNW,330,1.0,6.0,47,0.00,,---,0.00,VWS V13.00,2013-01-04 19:23:00,
2013-01-04 13:28:00,48.7,29.4,30.36,NNW,335,0.0,6.0,47,0.00,,---,0.00,VWS V13.00,2013-01-04 19:28:00,
2013-01-04 13:33:00,49.1,28.7,30.36,SSW,204,4.0,9.0,45,0.00,,---,0.00,VWS V13.00,2013-01-04 19:33:00,
2013-01-04 13:38:00,49.4,30.0,30.36,NW,313,0.0,7.0,47,0.00,,---,0.00,VWS V13.00,2013-01-04 19:38:00,
2013-01-04 13:43:00,49.4,29.0,30.36,SW,227,4.0,10.0,45,0.00,,---,0.00,VWS V13.00,2013-01-04 19:43:00,
2013-01-04 13:48:00,49.3,29.9,30.36,NNW,328,3.0,10.0,47,0.00,,---,0.00,VWS V13.00,2013-01-04 19:48:00,
2013-01-04 13:53:00,49.2,29.3,30.36,NW,311,0.0,5.0,46,0.00,,---,0.00,VWS V13.00,2013-01-04 19:53:00,
2013-01-04 13:58:00,49.4,30.0,30.36,SSW,211,0.0,5.0,47,0.00,,---,0.00,VWS V13.00,2013-01-04 19:58:00,
2013-01-04 14:03:00,49.7,29.2,30.36,NNW,342,5.0,6.0,45,0.00,,---,0.00,VWS V13.00,2013-01-04 20:03:00,
2013-01-04 14:08:00,49.6,28.6,30.36,NW,315,4.0,5.0,44,0.00,,---,0.00,VWS V13.00,2013-01-04 20:08:00,
2013-01-04 14:13:00,49.5,28.0,30.36,NW,321,2.0,6.0,43,0.00,,---,0.00,VWS V13.00,2013-01-04 20:13:00,
2013-01-04 14:18:00,49.2,27.7,30.36,NW,321,0.0,6.0,43,0.00,,---,0.00,VWS V13.00,2013-01-04 20:18:00,
2013-01-04 14:23:00,49.4,27.9,30.36,WSW,240,0.0,5.0,43,0.00,,---,0.00,VWS V13.00,2013-01-04 20:23:00,
2013-01-04 14:28:00,49.9,28.3,30.35,NNW,327,1.0,5.0,43,0.00,,---,0.00,VWS V13.00,2013-01-04 20:28:00,
2013-01-04 14:33:00,49.9,27.7,30.35,West,276,2.0,5.0,42,0.00,,---,0.00,VWS V13.00,2013-01-04 20:33:00,
2013-01-04 14:38:00,49.9,27.7,30.36,NNE,12,3.0,6.0,42,0.00,,---,0.00,VWS V13.00,2013-01-04 20:38:00,
2013-01-04 14:43:00,49.9,27.7,30.36,NNW,339,3.0,6.0,42,0.00,,---,0.00,VWS V13.00,2013-01-04 20:43:00,
2013-01-04 14:48:00,49.9,28.3,30.36,WNW,300,3.0,6.0,43,0.00,,---,0.00,VWS V13.00,2013-01-04 20:48:00,
2013-01-04 14:53:00,49.8,28.8,30.36,NNW,328,0.0,6.0,44,0.00,,---,0.00,VWS V13.00,2013-01-04 20:53:00,
2013-01-04 14:58:00,49.8,28.8,30.36,NW,305,0.0,6.0,44,0.00,,---,0.00,VWS V13.00,2013-01-04 20:58:00,
2013-01-04 15:03:00,49.9,28.9,30.36,NNW,348,0.0,6.0,44,0.00,,---,0.00,VWS V13.00,2013-01-04 21:03:00,
2013-01-04 15:08:00,50.0,29.5,30.36,NNE,19,0.0,4.0,45,0.00,,---,0.00,VWS V13.00,2013-01-04 21:08:00,
2013-01-04 15:13:00,50.0,29.5,30.36,NNW,345,2.0,5.0,45,0.00,,---,0.00,VWS V13.00,2013-01-04 21:13:00,
2013-01-04 15:18:00,50.1,29.6,30.36,NW,304,0.0,5.0,45,0.00,,---,0.00,VWS V13.00,2013-01-04 21:18:00,
2013-01-04 15:23:00,50.1,30.1,30.36,WSW,257,1.0,5.0,46,0.00,,---,0.00,VWS V13.00,2013-01-04 21:23:00,
2013-01-04 15:28:00,50.0,29.5,30.36,NW,309,0.0,6.0,45,0.00,,---,0.00,VWS V13.00,2013-01-04 21:28:00,
2013-01-04 15:33:00,49.9,29.4,30.37,NNW,330,0.0,6.0,45,0.00,,---,0.00,VWS V13.00,2013-01-04 21:33:00,
2013-01-04 15:38:00,49.7,29.8,30.37,West,265,2.0,3.0,46,0.00,,---,0.00,VWS V13.00,2013-01-04 21:38:00,
2013-01-04 15:43:00,49.7,29.8,30.37,WNW,298,3.0,6.0,46,0.00,,---,0.00,VWS V13.00,2013-01-04 21:43:00,
2013-01-04 15:48:00,49.6,29.7,30.37,NNW,336,1.0,6.0,46,0.00,,---,0.00,VWS V13.00,2013-01-04 21:48:00,
2013-01-04 15:53:00,49.4,29.5,30.37,NNW,336,1.0,2.0,46,0.00,,---,0.00,VWS V13.00,2013-01-04 21:53:00,
2013-01-04 15:58:00,49.3,29.4,30.37,North,350,2.0,4.0,46,0.00,,---,0.00,VWS V13.00,2013-01-04 21:58:00,
2013-01-04 16:03:00,49.3,29.9,30.37,NW,322,0.0,4.0,47,0.00,,---,0.00,VWS V13.00,2013-01-04 22:03:00,
2013-01-04 16:08:00,49.3,29.4,30.37,WNW,300,0.0,3.0,46,0.00,,---,0.00,VWS V13.00,2013-01-04 22:08:00,
2013-01-04 16:13:00,49.2,28.8,30.37,NNW,342,0.0,4.0,45,0.00,,---,0.00,VWS V13.00,2013-01-04 22:13:00,
2013-01-04 16:18:00,49.0,28.6,30.37,NW,325,0.0,4.0,45,0.00,,---,0.00,VWS V13.00,2013-01-04 22:18:00,
2013-01-04 16:23:00,48.9,29.0,30.37,NNW,340,0.0,3.0,46,0.00,,---,0.00,VWS V13.00,2013-01-04 22:23:00,
2013-01-04 16:28:00,48.7,28.9,30.37,NNW,340,0.0,3.0,46,0.00,,---,0.00,VWS V13.00,2013-01-04 22:28:00,
2013-01-04 16:33:00,48.5,29.2,30.37,NNW,340,0.0,3.0,47,0.00,,---,0.00,VWS V13.00,2013-01-04 22:33:00,
2013-01-04 16:38:00,48.3,29.0,30.37,NNW,340,0.0,0.0,47,0.00,,---,0.00,VWS V13.00,2013-01-04 22:38:00,
2013-01-04 16:43:00,48.0,29.3,30.37,NNW,340,0.0,0.0,48,0.00,,---,0.00,VWS V13.00,2013-01-04 22:43:00,
2013-01-04 16:48:00,47.6,28.9,30.37,NNW,340,0.0,1.0,48,0.00,,---,0.00,VWS V13.00,2013-01-04 22:48:00,
2013-01-04 16:53:00,47.3,29.6,30.37,NNW,340,0.0,0.0,50,0.00,,---,0.00,VWS V13.00,2013-01-04 22:53:00,
2013-01-04 16:58:00,46.9,30.2,30.37,NNW,340,0.0,0.0,52,0.00,,---,0.00,VWS V13.00,2013-01-04 22:58:00,
2013-01-04 17:03:00,46.5,30.3,30.37,NNW,340,0.0,0.0,53,0.00,,---,0.00,VWS V13.00,2013-01-04 23:03:00,
2013-01-04 17:08:00,46.0,30.8,30.37,NNW,340,0.0,0.0,55,0.00,,---,0.00,VWS V13.00,2013-01-04 23:08:00,
2013-01-04 17:13:00,45.5,30.7,30.38,NNW,340,0.0,0.0,56,0.00,,---,0.00,VWS V13.00,2013-01-04 23:13:00,
2013-01-04 17:18:00,45.0,31.5,30.38,NNW,340,0.0,0.0,59,0.00,,---,0.00,VWS V13.00,2013-01-04 23:18:00,
2013-01-04 17:23:00,44.6,30.8,30.38,NNW,340,0.0,0.0,58,0.00,,---,0.00,VWS V13.00,2013-01-04 23:23:00,
2013-01-04 17:28:00,44.3,30.5,30.38,NNW,340,0.0,0.0,58,0.00,,---,0.00,VWS V13.00,2013-01-04 23:28:00,
2013-01-04 17:33:00,44.1,30.7,30.39,NNW,340,0.0,0.0,59,0.00,,---,0.00,VWS V13.00,2013-01-04 23:33:00,
2013-01-04 17:38:00,43.8,30.4,30.39,NNW,340,0.0,0.0,59,0.00,,---,0.00,VWS V13.00,2013-01-04 23:38:00,
2013-01-04 17:43:00,43.5,30.5,30.39,NNW,340,0.0,0.0,60,0.00,,---,0.00,VWS V13.00,2013-01-04 23:43:00,
2013-01-04 17:48:00,43.2,30.7,30.39,NNW,340,0.0,0.0,61,0.00,,---,0.00,VWS V13.00,2013-01-04 23:48:00,
2013-01-04 17:53:00,42.9,30.4,30.39,NNW,340,0.0,0.0,61,0.00,,---,0.00,VWS V13.00,2013-01-04 23:53:00,
2013-01-04 17:58:00,42.7,30.6,30.40,NNW,340,0.0,1.0,62,0.00,,---,0.00,VWS V13.00,2013-01-04 23:58:00,
2013-01-04 18:03:00,42.7,31.0,30.40,NNW,340,0.0,1.0,63,0.00,,---,0.00,VWS V13.00,2013-01-05 00:03:00,
2013-01-04 18:08:00,42.4,31.1,30.40,NNW,340,0.0,0.0,64,0.00,,---,0.00,VWS V13.00,2013-01-05 00:08:00,
2013-01-04 18:13:00,42.2,31.3,30.40,NNW,340,0.0,0.0,65,0.00,,---,0.00,VWS V13.00,2013-01-05 00:13:00,
2013-01-04 18:18:00,41.8,31.3,30.40,NNW,340,0.0,0.0,66,0.00,,---,0.00,VWS V13.00,2013-01-05 00:18:00,
2013-01-04 18:23:00,41.5,31.0,30.40,NNW,340,0.0,0.0,66,0.00,,---,0.00,VWS V13.00,2013-01-05 00:23:00,
2013-01-04 18:28:00,41.1,31.4,30.40,NNW,340,0.0,0.0,68,0.00,,---,0.00,VWS V13.00,2013-01-05 00:28:00,
2013-01-04 18:33:00,40.6,31.6,30.40,NNW,340,0.0,0.0,70,0.00,,---,0.00,VWS V13.00,2013-01-05 00:33:00,
2013-01-04 18:38:00,40.3,31.3,30.40,NNW,340,0.0,0.0,70,0.00,,---,0.00,VWS V13.00,2013-01-05 00:38:00,
2013-01-04 18:43:00,40.0,31.7,30.40,NNW,340,0.0,0.0,72,0.00,,---,0.00,VWS V13.00,2013-01-05 00:43:00,
2013-01-04 18:48:00,39.8,31.9,30.40,NNW,340,0.0,0.0,73,0.00,,---,0.00,VWS V13.00,2013-01-05 00:48:00,
2013-01-04 18:53:00,39.5,31.6,30.40,NNW,340,0.0,0.0,73,0.00,,---,0.00,VWS V13.00,2013-01-05 00:53:00,
2013-01-04 18:58:00,39.3,31.7,30.40,NNW,340,0.0,0.0,74,0.00,,---,0.00,VWS V13.00,2013-01-05 00:58:00,
2013-01-04 19:03:00,39.0,31.8,30.40,NNW,340,0.0,0.0,75,0.00,,---,0.00,VWS V13.00,2013-01-05 01:03:00,
2013-01-04 19:08:00,38.8,31.6,30.40,NNW,340,0.0,0.0,75,0.00,,---,0.00,VWS V13.00,2013-01-05 01:08:00,
2013-01-04 19:13:00,38.6,31.7,30.40,NNW,340,0.0,0.0,76,0.00,,---,0.00,VWS V13.00,2013-01-05 01:13:00,
2013-01-04 19:18:00,38.4,31.5,30.40,NNW,340,0.0,0.0,76,0.00,,---,0.00,VWS V13.00,2013-01-05 01:18:00,
2013-01-04 19:23:00,38.2,31.6,30.40,NNW,340,0.0,0.0,77,0.00,,---,0.00,VWS V13.00,2013-01-05 01:23:00,
2013-01-04 19:28:00,38.0,31.4,30.40,NNW,340,0.0,0.0,77,0.00,,---,0.00,VWS V13.00,2013-01-05 01:28:00,
2013-01-04 19:33:00,37.8,31.6,30.39,NNW,340,0.0,0.0,78,0.00,,---,0.00,VWS V13.00,2013-01-05 01:33:00,
2013-01-04 19:38:00,37.6,31.7,30.40,NNW,340,0.0,0.0,79,0.00,,---,0.00,VWS V13.00,2013-01-05 01:38:00,
2013-01-04 19:43:00,37.5,31.6,30.40,NNW,340,0.0,0.0,79,0.00,,---,0.00,VWS V13.00,2013-01-05 01:43:00,
2013-01-04 19:48:00,37.5,31.0,30.40,NNW,340,0.0,0.0,77,0.00,,---,0.00,VWS V13.00,2013-01-05 01:48:00,
2013-01-04 19:53:00,37.6,31.1,30.40,NNW,340,0.0,0.0,77,0.00,,---,0.00,VWS V13.00,2013-01-05 01:53:00,
2013-01-04 19:58:00,37.7,30.5,30.40,NNW,340,0.0,0.0,75,0.00,,---,0.00,VWS V13.00,2013-01-05 01:58:00,
2013-01-04 20:03:00,37.8,29.9,30.40,NNW,340,0.0,0.0,73,0.00,,---,0.00,VWS V13.00,2013-01-05 02:03:00,
2013-01-04 20:08:00,38.1,29.9,30.40,NNW,340,0.0,0.0,72,0.00,,---,0.00,VWS V13.00,2013-01-05 02:08:00,
2013-01-04 20:13:00,38.1,29.9,30.40,NNW,340,0.0,0.0,72,0.00,,---,0.00,VWS V13.00,2013-01-05 02:13:00,
2013-01-04 20:18:00,38.1,30.2,30.40,NNW,340,0.0,0.0,73,0.00,,---,0.00,VWS V13.00,2013-01-05 02:18:00,
2013-01-04 20:23:00,38.1,29.9,30.40,NNW,340,0.0,0.0,72,0.00,,---,0.00,VWS V13.00,2013-01-05 02:23:00,
2013-01-04 20:28:00,38.0,30.1,30.40,NNW,340,0.0,0.0,73,0.00,,---,0.00,VWS V13.00,2013-01-05 02:28:00,
2013-01-04 20:33:00,37.9,29.4,30.39,NNW,340,0.0,0.0,71,0.00,,---,0.00,VWS V13.00,2013-01-05 02:33:00,
2013-01-04 20:38:00,37.9,30.0,30.39,NNW,340,0.0,0.0,73,0.00,,---,0.00,VWS V13.00,2013-01-05 02:38:00,
2013-01-04 20:43:00,37.8,30.6,30.40,NNW,340,0.0,0.0,75,0.00,,---,0.00,VWS V13.00,2013-01-05 02:43:00,
2013-01-04 20:48:00,37.7,30.2,30.40,NNW,340,0.0,0.0,74,0.00,,---,0.00,VWS V13.00,2013-01-05 02:48:00,
2013-01-04 20:53:00,37.5,29.3,30.40,NNW,340,0.0,0.0,72,0.00,,---,0.00,VWS V13.00,2013-01-05 02:53:00,
2013-01-04 20:58:00,37.8,29.3,30.40,NNW,340,0.0,0.0,71,0.00,,---,0.00,VWS V13.00,2013-01-05 02:58:00,
2013-01-04 21:03:00,37.9,29.4,30.40,NNW,340,0.0,0.0,71,0.00,,---,0.00,VWS V13.00,2013-01-05 03:03:00,
2013-01-04 21:08:00,38.0,29.8,30.40,NNW,340,0.0,0.0,72,0.00,,---,0.00,VWS V13.00,2013-01-05 03:08:00,
2013-01-04 21:13:00,38.0,29.8,30.40,NNW,340,0.0,0.0,72,0.00,,---,0.00,VWS V13.00,2013-01-05 03:13:00,
2013-01-04 21:18:00,37.8,29.9,30.39,NNW,340,0.0,0.0,73,0.00,,---,0.00,VWS V13.00,2013-01-05 03:18:00,
2013-01-04 21:23:00,37.6,29.4,30.40,NNW,340,0.0,0.0,72,0.00,,---,0.00,VWS V13.00,2013-01-05 03:23:00,
2013-01-04 21:28:00,37.5,29.3,30.40,NNW,340,0.0,0.0,72,0.00,,---,0.00,VWS V13.00,2013-01-05 03:28:00,
2013-01-04 21:33:00,37.4,29.2,30.40,NNW,340,0.0,0.0,72,0.00,,---,0.00,VWS V13.00,2013-01-05 03:33:00,
2013-01-04 21:38:00,37.3,28.8,30.40,NNW,340,0.0,0.0,71,0.00,,---,0.00,VWS V13.00,2013-01-05 03:38:00,
2013-01-04 21:43:00,37.3,29.5,30.40,NNW,340,0.0,0.0,73,0.00,,---,0.00,VWS V13.00,2013-01-05 03:43:00,
2013-01-04 21:48:00,37.2,29.0,30.40,NNW,340,0.0,0.0,72,0.00,,---,0.00,VWS V13.00,2013-01-05 03:48:00,
2013-01-04 21:53:00,37.2,29.0,30.40,NNW,340,0.0,0.0,72,0.00,,---,0.00,VWS V13.00,2013-01-05 03:53:00,
2013-01-04 21:58:00,37.2,29.0,30.40,NNW,340,0.0,0.0,72,0.00,,---,0.00,VWS V13.00,2013-01-05 03:58:00,
2013-01-04 22:03:00,37.0,29.5,30.40,NNW,340,0.0,0.0,74,0.00,,---,0.00,VWS V13.00,2013-01-05 04:03:00,
2013-01-04 22:08:00,36.9,29.1,30.40,NNW,340,0.0,0.0,73,0.00,,---,0.00,VWS V13.00,2013-01-05 04:08:00,
2013-01-04 22:13:00,36.8,29.0,30.39,NNW,340,0.0,0.0,73,0.00,,---,0.00,VWS V13.00,2013-01-05 04:13:00,
2013-01-04 22:18:00,36.5,29.3,30.39,NNW,340,0.0,0.0,75,0.00,,---,0.00,VWS V13.00,2013-01-05 04:18:00,
2013-01-04 22:23:00,36.2,29.7,30.39,NNW,340,0.0,1.0,77,0.00,,---,0.00,VWS V13.00,2013-01-05 04:23:00,
2013-01-04 22:28:00,35.9,28.8,30.40,NNW,340,0.0,1.0,75,0.00,,---,0.00,VWS V13.00,2013-01-05 04:28:00,
2013-01-04 22:33:00,36.0,29.2,30.39,NNW,340,0.0,1.0,76,0.00,,---,0.00,VWS V13.00,2013-01-05 04:33:00,
2013-01-04 22:38:00,35.9,29.1,30.39,NNW,340,0.0,0.0,76,0.00,,---,0.00,VWS V13.00,2013-01-05 04:38:00,
2013-01-04 22:43:00,35.9,29.4,30.39,NNW,340,0.0,0.0,77,0.00,,---,0.00,VWS V13.00,2013-01-05 04:43:00,
2013-01-04 22:48:00,35.8,29.6,30.39,NNW,340,0.0,1.0,78,0.00,,---,0.00,VWS V13.00,2013-01-05 04:48:00,
2013-01-04 22:53:00,35.6,29.4,30.39,NNW,340,0.0,0.0,78,0.00,,---,0.00,VWS V13.00,2013-01-05 04:53:00,
2013-01-04 22:58:00,35.4,29.9,30.38,NNW,340,0.0,0.0,80,0.00,,---,0.00,VWS V13.00,2013-01-05 04:58:00,
2013-01-04 23:00:00,35.3,29.8,30.39,NNW,340,0.0,0.0,80,0.00,,---,0.00,VWS V13.00,2013-01-05 05:00:00,
2013-01-04 23:02:00,35.2,29.7,30.39,NNW,340,0.0,0.0,80,0.00,,---,0.00,VWS V13.00,2013-01-05 05:02:00,
2013-01-04 23:07:00,35.0,29.5,30.38,NNW,340,0.0,0.0,80,0.00,,---,0.00,VWS V13.00,2013-01-05 05:07:00,
2013-01-04 23:12:00,35.0,29.5,30.38,NNW,340,0.0,0.0,80,0.00,,---,0.00,VWS V13.00,2013-01-05 05:12:00,
2013-01-04 23:17:00,34.9,29.4,30.38,NNW,340,0.0,0.0,80,0.00,,---,0.00,VWS V13.00,2013-01-05 05:17:00,
2013-01-04 23:22:00,34.8,29.0,30.38,NNW,340,0.0,0.0,79,0.00,,---,0.00,VWS V13.00,2013-01-05 05:22:00,
2013-01-04 23:27:00,34.7,28.9,30.38,NNW,340,0.0,0.0,79,0.00,,---,0.00,VWS V13.00,2013-01-05 05:27:00,
2013-01-04 23:32:00,34.6,28.8,30.38,NNW,340,0.0,0.0,79,0.00,,---,0.00,VWS V13.00,2013-01-05 05:32:00,
2013-01-04 23:37:00,34.4,28.9,30.38,NNW,340,0.0,0.0,80,0.00,,---,0.00,VWS V13.00,2013-01-05 05:37:00,
2013-01-04 23:42:00,34.4,28.9,30.37,NNW,340,0.0,0.0,80,0.00,,---,0.00,VWS V13.00,2013-01-05 05:42:00,
2013-01-04 23:47:00,34.4,29.5,30.37,NNW,340,0.0,0.0,82,0.00,,---,0.00,VWS V13.00,2013-01-05 05:47:00,
2013-01-04 23:52:00,34.1,29.5,30.37,NNW,340,0.0,0.0,83,0.00,,---,0.00,VWS V13.00,2013-01-05 05:52:00,
2013-01-04 23:57:00,33.9,29.6,30.37,NNW,340,0.0,0.0,84,0.00,,---,0.00,VWS V13.00,2013-01-05 05:57:00,